.
WxDataArchive / Data Records for 2014-03-03
2014-03-02 March 2014 2014-03-04

Data Records for Monday, 03 March 2014

Time	Temp	Chill	HIndex	Humid	Dewpt	 Wind 	HiWind	WindDir	Rain 	Barom
-----	----	-----	------	-----	-----	------	------	-------	-----	-----
00:00	13.3	13.3	13.3	69	5.1	1	3	0	0.00	30.361 
00:05	13.1	13.1	13.1	69	4.9	1	4	338	0.00	30.361 
00:10	13.1	13.1	13.1	68	4.6	0	2	338	0.00	30.361 
00:15	12.9	12.9	12.9	67	4.0	1	3	338	0.00	30.356 
00:20	12.9	12.9	12.9	66	3.7	1	4	338	0.00	30.356 
00:25	12.8	12.8	12.8	65	3.3	1	6	315	0.00	30.356 
00:30	12.6	12.6	12.6	64	2.8	1	4	338	0.00	30.355 
00:35	12.4	12.4	12.4	64	2.6	1	4	22	0.00	30.355 
00:40	12.4	12.4	12.4	63	2.2	1	3	338	0.00	30.355 
00:45	12.3	12.3	12.3	63	2.1	1	4	338	0.00	30.355 
00:50	12.1	12.1	12.1	63	2.0	1	4	338	0.00	30.355 
00:55	12.1	12.1	12.1	63	2.0	1	5	0	0.00	30.355 
01:00	11.9	11.9	11.9	62	1.4	1	6	338	0.00	30.358 
01:05	11.7	11.7	11.7	62	1.2	1	3	338	0.00	30.358 
01:10	11.7	11.7	11.7	62	1.2	0	3	45	0.00	30.358 
01:15	11.6	11.6	11.6	62	1.1	1	5	338	0.00	30.371 
01:20	11.4	11.4	11.4	62	0.9	1	3	338	0.00	30.371 
01:25	11.2	11.2	11.2	62	0.8	1	4	0	0.00	30.371 
01:30	11.1	11.1	11.1	62	0.7	0	3	45	0.00	30.369 
01:35	11.1	11.1	11.1	62	0.7	1	3	90	0.00	30.369 
01:40	10.9	10.9	10.9	62	0.5	1	3	292	0.00	30.369 
01:45	10.7	10.7	10.7	61	-0.1	0	5	68	0.00	30.372 
01:50	10.4	10.4	10.4	60	-0.7	1	3	45	0.00	30.372 
01:55	10.2	10.2	10.2	59	-1.2	1	9	135	0.00	30.372 
02:00	10.0	10.0	10.0	60	-1.1	0	2	68	0.00	30.376 
02:05	9.9	9.9	9.9	60	-1.2	0	3	68	0.00	30.376 
02:10	9.9	9.9	9.9	60	-1.2	1	6	112	0.00	30.376 
02:15	9.7	9.7	9.7	60	-1.4	0	2	112	0.00	30.380 
02:20	9.3	9.3	9.3	61	-1.4	0	4	112	0.00	30.380 
02:25	9.3	9.3	9.3	61	-1.4	1	3	45	0.00	30.380 
02:30	9.2	9.2	9.2	61	-1.5	1	3	338	0.00	30.381 
02:35	8.8	8.8	8.8	61	-1.9	1	5	315	0.00	30.381 
02:40	8.6	8.6	8.6	61	-2.1	0	2	315	0.00	30.381 
02:45	8.4	8.4	8.4	61	-2.2	0	3	315	0.00	30.375 
02:50	8.1	8.1	8.1	61	-2.5	0	3	0	0.00	30.375 
02:55	7.9	7.9	7.9	61	-2.7	1	5	112	0.00	30.375 
03:00	7.7	7.7	7.7	61	-2.9	1	6	112	0.00	30.368 
03:05	7.6	7.6	7.6	61	-3.0	1	3	315	0.00	30.368 
03:10	7.6	7.6	7.6	60	-3.3	1	3	270	0.00	30.368 
03:15	7.2	7.2	7.2	60	-3.7	1	4	338	0.00	30.381 
03:20	7.0	7.0	7.0	59	-4.3	1	5	338	0.00	30.381 
03:25	6.9	6.9	6.9	59	-4.4	0	2	338	0.00	30.381 
03:30	6.5	6.5	6.5	59	-4.7	0	3	338	0.00	30.379 
03:35	6.3	6.3	6.3	59	-4.9	1	5	90	0.00	30.379 
03:40	6.0	6.0	6.0	59	-5.2	0	3	90	0.00	30.379 
03:45	5.8	5.8	5.8	59	-5.4	1	5	0	0.00	30.382 
03:50	5.4	5.4	5.4	60	-5.4	1	5	112	0.00	30.382 
03:55	5.2	5.2	5.2	60	-5.6	0	2	22	0.00	30.382 
04:00	5.0	5.0	5.0	60	-5.8	0	2	22	0.00	30.397 
04:05	4.8	4.8	4.8	61	-5.7	0	2	45	0.00	30.397 
04:10	4.8	4.8	4.8	61	-5.7	0	4	112	0.00	30.397 
04:15	4.7	4.7	4.7	61	-5.8	0	1	90	0.00	30.393 
04:20	4.5	4.5	4.5	61	-5.9	0	1	112	0.00	30.393 
04:25	4.3	4.3	4.3	62	-5.8	0	1	112	0.00	30.393 
04:30	4.1	4.1	4.1	62	-6.0	0	1	112	0.00	30.396 
04:35	3.9	3.9	3.9	62	-6.2	0	1	112	0.00	30.396 
04:40	3.7	3.7	3.7	62	-6.4	0	0	---	0.00	30.396 
04:45	3.5	3.5	3.5	62	-6.6	0	1	112	0.00	30.416 
04:50	3.4	3.4	3.4	63	-6.3	0	0	---	0.00	30.416 
04:55	3.2	3.2	3.2	63	-6.5	0	0	---	0.00	30.416 
05:00	3.0	3.0	3.0	63	-6.7	0	1	112	0.00	30.411 
05:05	2.8	2.8	2.8	63	-6.9	0	0	---	0.00	30.411 
05:10	2.6	2.6	2.6	63	-7.1	0	2	112	0.00	30.411 
05:15	2.2	2.2	2.2	63	-7.5	0	2	112	0.00	30.411 
05:20	2.2	2.2	2.2	63	-7.5	0	1	112	0.00	30.411 
05:25	2.0	2.0	2.0	63	-7.7	0	1	112	0.00	30.411 
05:30	2.0	2.0	2.0	63	-7.7	0	2	112	0.00	30.418 
05:35	2.0	2.0	2.0	62	-8.0	0	0	---	0.00	30.418 
05:40	1.7	1.7	1.7	62	-8.3	0	0	---	0.00	30.418 
05:45	1.5	1.5	1.5	62	-8.5	0	1	112	0.00	30.418 
05:50	1.3	1.3	1.3	62	-8.6	0	1	112	0.00	30.418 
05:55	0.9	0.9	0.9	62	-9.0	0	0	---	0.00	30.418 
06:00	0.7	0.7	0.7	62	-9.2	0	0	---	0.00	30.419 
06:05	0.3	0.3	0.3	62	-9.6	0	0	---	0.00	30.419 
06:10	0.0	0.0	0.0	62	-9.9	0	0	---	0.00	30.419 
06:15	-0.2	-0.2	-0.2	62	-10.1	0	0	---	0.00	30.434 
06:20	-0.6	-0.6	-0.6	63	-10.1	0	0	---	0.00	30.434 
06:25	-0.8	-0.8	-0.8	63	-10.3	0	0	---	0.00	30.434 
06:30	-1.0	-1.0	-1.0	64	-10.2	0	0	---	0.00	30.436 
06:35	-1.2	-1.2	-1.2	64	-10.4	0	0	---	0.00	30.436 
06:40	-1.4	-1.4	-1.4	65	-10.3	0	0	---	0.00	30.436 
06:45	-1.6	-1.6	-1.6	65	-10.5	0	0	---	0.00	30.439 
06:50	-1.8	-1.8	-1.8	65	-10.6	0	0	---	0.00	30.439 
06:55	-1.8	-1.8	-1.8	66	-10.3	0	0	---	0.00	30.439 
07:00	-1.8	-1.8	-1.8	66	-10.3	0	0	---	0.00	30.443 
07:05	-1.8	-1.8	-1.8	66	-10.3	0	0	---	0.00	30.443 
07:10	-1.8	-1.8	-1.8	67	-10.0	0	0	---	0.00	30.443 
07:15	-1.6	-1.6	-1.6	67	-9.8	0	1	112	0.00	30.451 
07:20	-1.2	-1.2	-1.2	68	-9.2	0	0	---	0.00	30.451 
07:25	-1.0	-1.0	-1.0	68	-9.0	0	0	---	0.00	30.451 
07:30	-1.0	-1.0	-1.0	68	-9.0	0	1	112	0.00	30.455 
07:35	-1.0	-1.0	-1.0	68	-9.0	0	0	---	0.00	30.455 
07:40	-0.8	-0.8	-0.8	68	-8.8	0	1	112	0.00	30.455 
07:45	-0.4	-0.4	-0.4	68	-8.4	0	1	112	0.00	30.468 
07:50	-0.2	-0.2	-0.2	68	-8.2	0	0	---	0.00	30.468 
07:55	0.0	0.0	0.0	67	-8.3	0	1	112	0.00	30.468 
08:00	0.1	0.1	0.1	67	-8.2	0	1	112	0.00	30.471 
08:05	0.5	0.5	0.5	67	-7.8	0	1	112	0.00	30.471 
08:10	0.7	0.7	0.7	66	-7.9	0	1	112	0.00	30.471 
08:15	0.9	0.9	0.9	65	-8.1	0	2	90	0.00	30.474 
08:20	1.5	1.5	1.5	65	-7.5	0	1	112	0.00	30.474 
08:25	1.8	1.8	1.8	64	-7.5	0	1	90	0.00	30.474 
08:30	2.0	2.0	2.0	63	-7.7	0	4	112	0.00	30.479 
08:35	2.6	2.6	2.6	62	-7.4	0	3	112	0.00	30.479 
08:40	3.0	3.0	3.0	61	-7.4	0	3	90	0.00	30.479 
08:45	3.2	3.2	3.2	60	-7.5	0	3	90	0.00	30.484 
08:50	3.5	3.5	3.5	59	-7.6	1	4	90	0.00	30.484 
08:55	3.9	3.9	3.9	58	-7.5	0	2	90	0.00	30.484 
09:00	3.9	3.9	3.9	56	-8.3	1	4	90	0.00	30.489 
09:05	4.1	4.1	4.1	55	-8.4	1	5	112	0.00	30.489 
09:10	4.5	4.5	4.5	55	-8.1	1	4	90	0.00	30.489 
09:15	4.8	4.8	4.8	54	-8.2	1	5	90	0.00	30.494 
09:20	5.4	5.4	5.4	53	-8.0	1	4	90	0.00	30.494 
09:25	5.6	5.6	5.6	52	-8.2	1	5	112	0.00	30.494 
09:30	6.0	6.0	6.0	51	-8.2	1	5	135	0.00	30.494 
09:35	6.1	6.1	6.1	50	-8.5	2	5	90	0.00	30.494 
09:40	6.3	6.3	6.3	50	-8.3	1	3	45	0.00	30.494 
09:45	6.7	6.7	6.7	50	-7.9	1	4	90	0.00	30.502 
09:50	7.0	7.0	7.0	49	-8.1	1	4	90	0.00	30.502 
09:55	7.6	7.6	7.6	48	-7.9	0	3	68	0.00	30.502 
10:00	7.9	7.9	7.9	47	-8.1	0	2	68	0.00	30.506 
10:05	8.1	8.1	8.1	47	-7.9	1	4	68	0.00	30.506 
10:10	8.1	8.1	8.1	46	-8.3	1	6	112	0.00	30.506 
10:15	8.1	8.1	8.1	46	-8.3	1	5	112	0.00	30.507 
10:20	8.4	8.4	8.4	46	-8.1	1	4	112	0.00	30.507 
10:25	8.8	8.8	8.8	45	-8.2	1	5	112	0.00	30.507 
10:30	8.6	8.6	8.6	45	-8.3	1	5	112	0.00	30.509 
10:35	9.0	9.0	9.0	46	-7.5	1	4	112	0.00	30.509 
10:40	9.2	9.2	9.2	45	-7.8	1	5	112	0.00	30.509 
10:45	9.0	9.0	9.0	44	-8.4	2	6	112	0.00	30.509 
10:50	9.0	9.0	9.0	44	-8.4	1	4	112	0.00	30.509 
10:55	9.3	9.3	9.3	44	-8.2	1	3	112	0.00	30.509 
11:00	9.9	9.9	9.9	43	-8.1	1	5	112	0.00	30.512 
11:05	9.9	9.9	9.9	44	-7.6	1	5	112	0.00	30.512 
11:10	10.0	10.0	10.0	42	-8.5	2	5	90	0.00	30.512 
11:15	9.7	9.7	9.7	44	-7.8	2	6	90	0.00	30.512 
11:20	9.5	9.5	9.5	44	-8.0	2	9	90	0.00	30.512 
11:25	9.7	9.7	9.7	44	-7.8	1	4	90	0.00	30.512 
11:30	10.0	10.0	10.0	44	-7.5	1	5	90	0.00	30.508 
11:35	9.9	9.9	9.9	44	-7.6	3	6	90	0.00	30.508 
11:40	9.2	1.7	9.2	43	-8.7	4	9	90	0.00	30.508 
11:45	9.2	9.2	9.2	45	-7.8	2	6	90	0.00	30.507 
11:50	9.5	9.5	9.5	43	-8.4	2	6	90	0.00	30.507 
11:55	10.0	10.0	10.0	44	-7.5	2	6	90	0.00	30.507 
12:00	9.7	9.7	9.7	47	-6.4	2	5	90	0.00	30.508 
12:05	10.0	10.0	10.0	45	-7.1	2	5	90	0.00	30.508 
12:10	9.7	9.7	9.7	44	-7.8	2	6	90	0.00	30.508 
12:15	9.5	9.5	9.5	43	-8.4	3	6	112	0.00	30.514 
12:20	9.7	9.7	9.7	43	-8.3	2	6	90	0.00	30.514 
12:25	9.5	9.5	9.5	43	-8.4	2	7	112	0.00	30.514 
12:30	9.7	9.7	9.7	43	-8.3	3	6	90	0.00	30.512 
12:35	10.0	10.0	10.0	43	-8.0	1	4	90	0.00	30.512 
12:40	10.5	10.5	10.5	43	-7.5	1	5	90	0.00	30.512 
12:45	10.5	10.5	10.5	43	-7.5	1	3	68	0.00	30.513 
12:50	10.7	10.7	10.7	41	-8.3	1	4	45	0.00	30.513 
12:55	10.5	10.5	10.5	42	-8.0	1	4	90	0.00	30.513 
13:00	10.5	10.5	10.5	43	-7.5	1	4	90	0.00	30.513 
13:05	10.5	10.5	10.5	42	-8.0	1	4	90	0.00	30.513 
13:10	10.4	10.4	10.4	43	-7.6	2	7	90	0.00	30.513 
13:15	10.0	10.0	10.0	43	-8.0	2	4	68	0.00	30.509 
13:20	10.2	10.2	10.2	44	-7.3	1	4	68	0.00	30.509 
13:25	10.4	10.4	10.4	44	-7.1	2	5	90	0.00	30.509 
13:30	10.2	10.2	10.2	43	-7.8	1	3	90	0.00	30.506 
13:35	10.5	10.5	10.5	45	-6.6	1	2	90	0.00	30.506 
13:40	11.1	11.1	11.1	43	-7.0	0	2	90	0.00	30.506 
13:45	11.2	11.2	11.2	43	-6.9	0	2	90	0.00	30.510 
13:50	11.2	11.2	11.2	41	-7.9	0	2	90	0.00	30.510 
13:55	11.1	11.1	11.1	43	-7.0	2	5	90	0.00	30.510 
14:00	11.2	11.2	11.2	44	-6.4	0	3	90	0.00	30.516 
14:05	11.2	11.2	11.2	43	-6.9	0	3	90	0.00	30.516 
14:10	11.2	11.2	11.2	44	-6.4	1	5	90	0.00	30.516 
14:15	11.4	11.4	11.4	43	-6.7	1	5	90	0.00	30.508 
14:20	11.2	11.2	11.2	44	-6.4	1	5	90	0.00	30.508 
14:25	10.9	10.9	10.9	43	-7.2	2	4	90	0.00	30.508 
14:30	10.7	10.7	10.7	44	-6.9	3	5	90	0.00	30.499 
14:35	10.5	10.5	10.5	45	-6.6	1	5	90	0.00	30.499 
14:40	10.7	10.7	10.7	46	-6.0	1	4	90	0.00	30.499 
14:45	11.2	11.2	11.2	46	-5.5	0	3	90	0.00	30.499 
14:50	11.7	11.7	11.7	45	-5.5	0	3	90	0.00	30.499 
14:55	11.9	11.9	11.9	45	-5.3	1	3	90	0.00	30.499 
15:00	11.9	11.9	11.9	43	-6.2	1	4	90	0.00	30.500 
15:05	11.7	11.7	11.7	45	-5.5	1	5	90	0.00	30.500 
15:10	12.1	12.1	12.1	45	-5.1	1	2	90	0.00	30.500 
15:15	12.1	12.1	12.1	45	-5.1	1	4	90	0.00	30.509 
15:20	11.9	11.9	11.9	43	-6.2	1	4	90	0.00	30.509 
15:25	11.9	11.9	11.9	44	-5.8	1	4	90	0.00	30.509 
15:30	11.7	11.7	11.7	43	-6.4	2	4	68	0.00	30.511 
15:35	11.7	11.7	11.7	45	-5.5	1	4	90	0.00	30.511 
15:40	11.9	11.9	11.9	44	-5.8	1	4	90	0.00	30.511 
15:45	11.6	11.6	11.6	44	-6.0	2	5	90	0.00	30.504 
15:50	11.4	11.4	11.4	45	-5.8	2	6	112	0.00	30.504 
15:55	11.6	11.6	11.6	46	-5.1	1	3	112	0.00	30.504 
16:00	11.7	11.7	11.7	45	-5.5	1	4	112	0.00	30.503 
16:05	11.9	11.9	11.9	46	-4.9	1	4	112	0.00	30.503 
16:10	11.9	11.9	11.9	46	-4.9	2	4	90	0.00	30.503 
16:15	11.7	11.7	11.7	45	-5.5	2	4	90	0.00	30.504 
16:20	11.7	11.7	11.7	45	-5.5	2	5	90	0.00	30.504 
16:25	11.6	11.6	11.6	45	-5.6	2	5	90	0.00	30.504 
16:30	11.7	11.7	11.7	45	-5.5	1	3	90	0.00	30.501 
16:35	11.7	11.7	11.7	46	-5.0	1	4	90	0.00	30.501 
16:40	11.6	11.6	11.6	46	-5.1	3	6	90	0.00	30.501 
16:45	11.4	11.4	11.4	45	-5.8	2	4	90	0.00	30.500 
16:50	11.2	11.2	11.2	46	-5.5	2	5	68	0.00	30.500 
16:55	11.2	11.2	11.2	45	-6.0	1	5	68	0.00	30.500 
17:00	11.2	11.2	11.2	45	-6.0	1	4	68	0.00	30.499 
17:05	11.2	11.2	11.2	46	-5.5	1	4	68	0.00	30.499 
17:10	11.1	11.1	11.1	46	-5.6	1	3	68	0.00	30.499 
17:15	11.1	11.1	11.1	46	-5.6	1	4	68	0.00	30.500 
17:20	10.9	10.9	10.9	46	-5.8	1	4	68	0.00	30.500 
17:25	10.9	10.9	10.9	46	-5.8	0	2	90	0.00	30.500 
17:30	10.7	10.7	10.7	46	-6.0	1	3	90	0.00	30.505 
17:35	10.5	10.5	10.5	45	-6.6	1	2	90	0.00	30.505 
17:40	10.5	10.5	10.5	46	-6.1	0	2	90	0.00	30.505 
17:45	10.4	10.4	10.4	46	-6.2	0	2	90	0.00	30.507 
17:50	10.4	10.4	10.4	46	-6.2	0	2	90	0.00	30.507 
17:55	10.4	10.4	10.4	46	-6.2	1	3	90	0.00	30.507 
18:00	10.4	10.4	10.4	46	-6.2	1	2	90	0.00	30.504 
18:05	10.2	10.2	10.2	46	-6.4	1	2	90	0.00	30.504 
18:10	10.0	10.0	10.0	46	-6.6	1	2	90	0.00	30.504 
18:15	9.9	9.9	9.9	46	-6.7	0	2	90	0.00	30.506 
18:20	9.7	9.7	9.7	46	-6.9	0	2	90	0.00	30.506 
18:25	9.3	9.3	9.3	47	-6.8	0	1	90	0.00	30.506 
18:30	9.0	9.0	9.0	47	-7.1	0	3	90	0.00	30.515 
18:35	8.8	8.8	8.8	47	-7.3	0	1	90	0.00	30.515 
18:40	8.4	8.4	8.4	48	-7.2	0	1	90	0.00	30.515 
18:45	8.3	8.3	8.3	49	-6.9	0	2	90	0.00	30.514 
18:50	7.7	7.7	7.7	49	-7.4	0	0	---	0.00	30.514 
18:55	7.4	7.4	7.4	50	-7.3	0	0	---	0.00	30.514 
19:00	7.0	7.0	7.0	50	-7.7	0	0	---	0.00	30.521 
19:05	6.7	6.7	6.7	51	-7.5	0	0	---	0.00	30.521 
19:10	6.3	6.3	6.3	52	-7.5	0	1	90	0.00	30.521 
19:15	6.0	6.0	6.0	53	-7.4	0	0	---	0.00	30.511 
19:20	5.6	5.6	5.6	54	-7.4	0	0	---	0.00	30.511 
19:25	5.4	5.4	5.4	54	-7.6	0	0	---	0.00	30.511 
19:30	5.0	5.0	5.0	54	-8.0	0	0	---	0.00	30.512 
19:35	4.7	4.7	4.7	55	-7.9	0	0	---	0.00	30.512 
19:40	4.3	4.3	4.3	55	-8.2	0	0	---	0.00	30.512 
19:45	3.9	3.9	3.9	56	-8.3	0	0	---	0.00	30.511 
19:50	3.5	3.5	3.5	57	-8.3	0	0	---	0.00	30.511 
19:55	3.4	3.4	3.4	58	-8.0	0	0	---	0.00	30.511 
20:00	3.2	3.2	3.2	58	-8.2	0	0	---	0.00	30.510 
20:05	2.8	2.8	2.8	58	-8.6	0	0	---	0.00	30.510 
20:10	2.6	2.6	2.6	59	-8.4	0	0	---	0.00	30.510 
20:15	2.6	2.6	2.6	59	-8.4	0	0	---	0.00	30.503 
20:20	2.4	2.4	2.4	60	-8.3	0	0	---	0.00	30.503 
20:25	2.4	2.4	2.4	60	-8.3	0	0	---	0.00	30.503 
20:30	2.2	2.2	2.2	60	-8.5	0	0	---	0.00	30.493 
20:35	2.0	2.0	2.0	61	-8.3	0	0	---	0.00	30.493 
20:40	1.8	1.8	1.8	61	-8.5	0	0	---	0.00	30.493 
20:45	1.7	1.7	1.7	62	-8.3	0	0	---	0.00	30.488 
20:50	1.5	1.5	1.5	62	-8.5	0	0	---	0.00	30.488 
20:55	1.5	1.5	1.5	63	-8.1	0	0	---	0.00	30.488 
21:00	1.5	1.5	1.5	64	-7.8	0	0	---	0.00	30.478 
21:05	1.3	1.3	1.3	64	-8.0	0	0	---	0.00	30.478 
21:10	1.1	1.1	1.1	64	-8.2	0	0	---	0.00	30.478 
21:15	0.9	0.9	0.9	64	-8.4	0	0	---	0.00	30.473 
21:20	0.9	0.9	0.9	65	-8.1	0	0	---	0.00	30.473 
21:25	1.1	1.1	1.1	65	-7.9	0	0	---	0.00	30.473 
21:30	0.9	0.9	0.9	66	-7.8	0	0	---	0.00	30.468 
21:35	0.9	0.9	0.9	66	-7.8	0	0	---	0.00	30.468 
21:40	0.7	0.7	0.7	66	-7.9	0	0	---	0.00	30.468 
21:45	0.5	0.5	0.5	66	-8.1	0	0	---	0.00	30.472 
21:50	0.5	0.5	0.5	66	-8.1	0	0	---	0.00	30.472 
21:55	0.5	0.5	0.5	67	-7.8	0	0	---	0.00	30.472 
22:00	0.5	0.5	0.5	68	-7.5	0	0	---	0.00	30.471 
22:05	0.7	0.7	0.7	69	-7.0	0	0	---	0.00	30.471 
22:10	1.3	1.3	1.3	68	-6.8	0	0	---	0.00	30.471 
22:15	1.5	1.5	1.5	68	-6.6	0	0	---	0.00	30.459 
22:20	1.5	1.5	1.5	68	-6.6	0	0	---	0.00	30.459 
22:25	1.5	1.5	1.5	68	-6.6	0	0	---	0.00	30.459 
22:30	1.5	1.5	1.5	68	-6.6	0	0	---	0.00	30.465 
22:35	1.5	1.5	1.5	68	-6.6	0	0	---	0.00	30.465 
22:40	1.7	1.7	1.7	67	-6.7	0	0	---	0.00	30.465 
22:45	1.7	1.7	1.7	68	-6.4	0	0	---	0.00	30.457 
22:50	1.7	1.7	1.7	68	-6.4	0	0	---	0.00	30.457 
22:55	1.7	1.7	1.7	68	-6.4	0	0	---	0.00	30.457 
23:00	1.5	1.5	1.5	68	-6.6	0	0	---	0.00	30.457 
23:05	1.5	1.5	1.5	68	-6.6	0	0	---	0.00	30.457 
23:10	1.3	1.3	1.3	68	-6.8	0	0	---	0.00	30.457 
23:15	1.5	1.5	1.5	68	-6.6	0	0	---	0.00	30.462 
23:20	1.5	1.5	1.5	69	-6.3	0	0	---	0.00	30.462 
23:25	1.5	1.5	1.5	69	-6.3	0	0	---	0.00	30.462 
23:30	1.5	1.5	1.5	69	-6.3	0	0	---	0.00	30.457 
23:35	1.3	1.3	1.3	69	-6.5	0	0	---	0.00	30.457 
23:40	1.3	1.3	1.3	70	-6.2	0	0	---	0.00	30.457 
23:45	1.3	1.3	1.3	70	-6.2	0	0	---	0.00	30.455 
23:50	1.3	1.3	1.3	70	-6.2	0	0	---	0.00	30.455 
23:55	1.5	1.5	1.5	70	-6.0	0	0	---	0.00	30.455 

CoCoRaHS
IN-AL-39
A2 Web Hosting
Creative Commons License
GoDaddy
search engine by freefind advanced

loaded 2018-11-15 14:37:49 • last modified 2010-11-18 10:43:29
Privacy PolicyDisclaimer
• wx.awcolley.com is powered by PmWiki v.2002016 •
• all content (unless otherwise noted) © 2018 A W Colley